createdAt,value
2022-09-17T00:00:11.360Z,1011.92
2022-09-17T00:01:12.244Z,1011.90
2022-09-17T00:02:13.170Z,1011.89
2022-09-17T00:03:14.106Z,1011.89
2022-09-17T00:04:15.115Z,1011.85
2022-09-17T00:05:15.918Z,1011.84
2022-09-17T00:06:16.810Z,1011.85
2022-09-17T00:07:17.696Z,1011.84
2022-09-17T00:08:18.576Z,1011.85
2022-09-17T00:09:19.453Z,1011.86
2022-09-17T00:10:20.336Z,1011.88
2022-09-17T00:11:21.225Z,1011.91
2022-09-17T00:12:22.105Z,1011.91
2022-09-17T00:13:22.976Z,1011.94
2022-09-17T00:14:23.860Z,1011.93
2022-09-17T00:15:24.733Z,1011.90
2022-09-17T00:16:25.849Z,1011.88
2022-09-17T00:17:26.216Z,1011.89
2022-09-17T00:18:27.119Z,1011.88
2022-09-17T00:19:28.103Z,1011.88
2022-09-17T00:20:28.907Z,1011.88
2022-09-17T00:21:29.792Z,1011.89
2022-09-17T00:22:30.674Z,1011.89
2022-09-17T00:23:31.548Z,1011.87
2022-09-17T00:24:32.438Z,1011.85
2022-09-17T00:25:33.305Z,1011.87
2022-09-17T00:26:34.197Z,1011.82
2022-09-17T00:27:35.079Z,1011.84
2022-09-17T00:28:35.960Z,1011.86
2022-09-17T00:29:36.837Z,1011.88
2022-09-17T00:30:37.717Z,1011.90
2022-09-17T00:31:38.692Z,1011.89
2022-09-17T00:32:39.522Z,1011.89
2022-09-17T00:33:40.407Z,1011.90
2022-09-17T00:34:41.408Z,1011.92
2022-09-17T00:35:42.213Z,1011.91
2022-09-17T00:36:43.104Z,1011.91
2022-09-17T00:37:43.987Z,1011.89
2022-09-17T00:38:44.870Z,1011.88
2022-09-17T00:39:45.757Z,1011.91
2022-09-17T00:40:46.637Z,1011.91
2022-09-17T00:41:47.530Z,1011.93
2022-09-17T00:42:48.412Z,1011.94
2022-09-17T00:43:49.306Z,1011.96
2022-09-17T00:44:50.208Z,1011.96
2022-09-17T00:45:51.080Z,1011.99
2022-09-17T00:46:52.085Z,1012.02
2022-09-17T00:47:52.937Z,1012.08
2022-09-17T00:48:53.821Z,1012.13
2022-09-17T00:49:54.840Z,1012.17
2022-09-17T00:50:55.643Z,1012.18
2022-09-17T00:52:00.298Z,1012.18
2022-09-17T00:52:57.023Z,1012.18
2022-09-17T00:53:57.896Z,1012.17
2022-09-17T00:54:58.777Z,1012.15
2022-09-17T00:55:59.663Z,1012.17
2022-09-17T00:57:00.551Z,1012.17
2022-09-17T00:58:01.435Z,1012.17
2022-09-17T00:59:02.319Z,1012.18
2022-09-17T01:00:03.201Z,1012.14
2022-09-17T01:01:04.149Z,1012.11
2022-09-17T01:02:04.689Z,1012.07
2022-09-17T01:03:05.562Z,1012.04
2022-09-17T01:04:06.438Z,1012.00
2022-09-17T01:05:07.477Z,1011.99
2022-09-17T01:06:08.296Z,1011.96
2022-09-17T01:07:09.185Z,1011.96
2022-09-17T01:08:10.066Z,1011.97
2022-09-17T01:09:10.946Z,1012.00
2022-09-17T01:10:11.829Z,1012.00
2022-09-17T01:11:12.728Z,1012.01
2022-09-17T01:12:13.605Z,1012.01
2022-09-17T01:13:14.490Z,1012.05
2022-09-17T01:14:15.373Z,1012.07
2022-09-17T01:15:16.254Z,1012.06
2022-09-17T01:16:17.226Z,1012.04
2022-09-17T01:17:18.056Z,1012.03
2022-09-17T01:18:18.932Z,1012.01
2022-09-17T01:19:19.819Z,1012.02
2022-09-17T01:20:20.821Z,1012.03
2022-09-17T01:21:21.632Z,1012.05
2022-09-17T01:22:22.518Z,1012.06
2022-09-17T01:23:23.399Z,1012.07
2022-09-17T01:24:24.281Z,1012.08
2022-09-17T01:25:25.224Z,1012.08
2022-09-17T01:26:26.109Z,1012.09
2022-09-17T01:27:26.991Z,1012.08
2022-09-17T01:28:27.874Z,1012.07
2022-09-17T01:29:28.756Z,1012.06
2022-09-17T01:30:29.640Z,1012.05
2022-09-17T01:31:30.624Z,1012.06
2022-09-17T01:32:31.479Z,1012.08
2022-09-17T01:33:32.359Z,1012.12
2022-09-17T01:34:33.243Z,1012.14
2022-09-17T01:35:34.250Z,1012.16
2022-09-17T01:36:35.069Z,1012.20
2022-09-17T01:37:35.948Z,1012.23
2022-09-17T01:38:36.823Z,1012.26
2022-09-17T01:39:37.706Z,1012.26
2022-09-17T01:40:38.592Z,1012.25
2022-09-17T01:41:39.488Z,1012.22
2022-09-17T01:42:40.372Z,1012.21
2022-09-17T01:43:41.256Z,1012.21
2022-09-17T01:44:42.139Z,1012.21
2022-09-17T01:45:43.023Z,1012.20
2022-09-17T01:46:43.956Z,1012.17
2022-09-17T01:47:44.801Z,1012.15
2022-09-17T01:48:45.673Z,1012.15
2022-09-17T01:49:46.572Z,1012.12
2022-09-17T01:50:47.595Z,1012.11
2022-09-17T01:51:48.408Z,1012.12
2022-09-17T01:52:49.282Z,1012.12
2022-09-17T01:53:50.181Z,1012.12
2022-09-17T01:54:51.084Z,1012.13
2022-09-17T01:55:51.987Z,1012.16
2022-09-17T01:56:52.893Z,1012.15
2022-09-17T01:57:53.792Z,1012.15
2022-09-17T01:58:54.668Z,1012.10
2022-09-17T01:59:55.570Z,1012.11
2022-09-17T02:00:56.510Z,1012.10
2022-09-17T02:01:57.438Z,1012.06
2022-09-17T02:02:58.312Z,1012.03
2022-09-17T02:03:59.213Z,1012.01
2022-09-17T02:05:00.101Z,1011.99
2022-09-17T02:06:01.103Z,1011.98
2022-09-17T02:07:01.938Z,1011.96
2022-09-17T02:08:02.821Z,1011.96
2022-09-17T02:09:03.723Z,1011.94
2022-09-17T02:10:04.623Z,1011.92
2022-09-17T02:11:05.509Z,1011.89
2022-09-17T02:12:06.417Z,1011.87
2022-09-17T02:13:07.305Z,1011.85
2022-09-17T02:14:08.203Z,1011.82
2022-09-17T02:15:09.086Z,1011.81
2022-09-17T02:16:10.000Z,1011.77
2022-09-17T02:17:10.874Z,1011.74
2022-09-17T02:18:11.773Z,1011.69
2022-09-17T02:19:12.661Z,1011.68
2022-09-17T02:20:13.545Z,1011.64
2022-09-17T02:21:14.548Z,1011.61
2022-09-17T02:22:15.373Z,1011.62
2022-09-17T02:23:16.259Z,1011.61
2022-09-17T02:24:17.142Z,1011.56
2022-09-17T02:25:18.024Z,1011.57
2022-09-17T02:26:18.908Z,1011.57
2022-09-17T02:27:19.805Z,1011.54
2022-09-17T02:28:20.688Z,1011.53
2022-09-17T02:29:21.569Z,1011.52
2022-09-17T02:30:22.452Z,1011.52
2022-09-17T02:31:23.383Z,1011.50
2022-09-17T02:32:24.234Z,1011.50
2022-09-17T02:33:25.115Z,1011.52
2022-09-17T02:34:25.990Z,1011.53
2022-09-17T02:35:26.872Z,1011.53
2022-09-17T02:36:27.870Z,1011.53
2022-09-17T02:37:28.817Z,1011.49
2022-09-17T02:38:29.202Z,1011.47
2022-09-17T02:39:30.118Z,1011.47
2022-09-17T02:40:31.059Z,1011.49
2022-09-17T02:41:31.908Z,1011.48
2022-09-17T02:42:32.812Z,1011.48
2022-09-17T02:43:33.712Z,1011.49
2022-09-17T02:44:34.616Z,1011.49
2022-09-17T02:45:35.518Z,1011.49
2022-09-17T02:46:36.481Z,1011.49
2022-09-17T02:47:37.342Z,1011.49
2022-09-17T02:48:38.227Z,1011.48
2022-09-17T02:49:39.127Z,1011.47
2022-09-17T02:50:40.032Z,1011.47
2022-09-17T02:51:41.050Z,1011.44
2022-09-17T02:52:41.859Z,1011.41
2022-09-17T02:53:42.738Z,1011.38
2022-09-17T02:54:43.643Z,1011.34
2022-09-17T02:55:44.544Z,1011.30
2022-09-17T02:56:45.423Z,1011.26
2022-09-17T02:57:46.320Z,1011.26
2022-09-17T02:58:47.222Z,1011.28
2022-09-17T02:59:48.126Z,1011.30
2022-09-17T03:00:49.119Z,1011.31
2022-09-17T03:01:49.972Z,1011.32
2022-09-17T03:02:50.860Z,1011.30
2022-09-17T03:03:51.766Z,1011.29
2022-09-17T03:04:52.667Z,1011.29
2022-09-17T03:05:53.568Z,1011.29
2022-09-17T03:06:54.593Z,1011.34
2022-09-17T03:07:55.406Z,1011.37
2022-09-17T03:08:56.325Z,1011.40
2022-09-17T03:09:57.180Z,1011.40
2022-09-17T03:10:58.081Z,1011.37
2022-09-17T03:11:58.982Z,1011.36
2022-09-17T03:12:59.899Z,1011.37
2022-09-17T03:14:00.789Z,1011.39
2022-09-17T03:15:01.692Z,1011.41
2022-09-17T03:16:02.652Z,1011.44
2022-09-17T03:17:03.505Z,1011.44
2022-09-17T03:18:04.409Z,1011.46
2022-09-17T03:19:05.307Z,1011.46
2022-09-17T03:20:06.202Z,1011.47
2022-09-17T03:21:07.080Z,1011.47
2022-09-17T03:22:08.088Z,1011.47
2022-09-17T03:23:08.923Z,1011.49
2022-09-17T03:24:09.815Z,1011.47
2022-09-17T03:25:10.693Z,1011.46
2022-09-17T03:26:11.588Z,1011.45
2022-09-17T03:27:12.489Z,1011.42
2022-09-17T03:28:13.397Z,1011.39
2022-09-17T03:29:14.294Z,1011.38
2022-09-17T03:30:15.160Z,1011.37
2022-09-17T03:31:16.130Z,1011.35
2022-09-17T03:32:16.980Z,1011.34
2022-09-17T03:33:17.871Z,1011.31
2022-09-17T03:34:18.768Z,1011.25
2022-09-17T03:35:19.669Z,1011.22
2022-09-17T03:36:20.553Z,1011.23
2022-09-17T03:37:21.552Z,1011.22
2022-09-17T03:38:22.366Z,1011.22
2022-09-17T03:39:23.238Z,1011.23
2022-09-17T03:40:24.219Z,1011.23
2022-09-17T03:41:25.100Z,1011.25
2022-09-17T03:42:25.977Z,1011.26
2022-09-17T03:43:26.871Z,1011.27
2022-09-17T03:44:27.753Z,1011.26
2022-09-17T03:45:28.628Z,1011.28
2022-09-17T03:46:29.579Z,1011.31
2022-09-17T03:47:30.411Z,1011.36
2022-09-17T03:48:31.306Z,1011.38
2022-09-17T03:49:32.186Z,1011.36
2022-09-17T03:50:33.070Z,1011.31
2022-09-17T03:51:33.955Z,1011.26
2022-09-17T03:52:34.951Z,1011.24
2022-09-17T03:53:35.769Z,1011.22
2022-09-17T03:54:36.651Z,1011.19
2022-09-17T03:55:37.533Z,1011.16
2022-09-17T03:56:38.423Z,1011.12
2022-09-17T03:57:39.302Z,1011.11
2022-09-17T03:58:40.196Z,1011.17
2022-09-17T03:59:41.073Z,1011.21
2022-09-17T04:00:41.954Z,1011.22
2022-09-17T04:01:42.916Z,1011.21
2022-09-17T04:02:43.894Z,1011.25
2022-09-17T04:03:44.732Z,1011.34
2022-09-17T04:04:45.618Z,1011.38
2022-09-17T04:05:46.497Z,1011.40
2022-09-17T04:06:47.388Z,1011.41
2022-09-17T04:07:48.376Z,1011.42
2022-09-17T04:08:49.185Z,1011.39
2022-09-17T04:09:50.072Z,1011.41
2022-09-17T04:10:50.953Z,1011.41
2022-09-17T04:11:51.838Z,1011.39
2022-09-17T04:12:52.719Z,1011.40
2022-09-17T04:13:53.602Z,1011.41
2022-09-17T04:14:54.486Z,1011.43
2022-09-17T04:15:55.464Z,1011.42
2022-09-17T04:16:56.317Z,1011.44
2022-09-17T04:17:57.203Z,1011.45
2022-09-17T04:18:58.089Z,1011.47
2022-09-17T04:19:58.963Z,1011.46
2022-09-17T04:20:59.844Z,1011.48
2022-09-17T04:22:00.721Z,1011.51
2022-09-17T04:23:01.720Z,1011.58
2022-09-17T04:24:02.535Z,1011.66
2022-09-17T04:25:03.417Z,1011.65
2022-09-17T04:26:04.301Z,1011.65
2022-09-17T04:27:05.183Z,1011.57
2022-09-17T04:28:06.072Z,1011.52
2022-09-17T04:29:06.958Z,1011.53
2022-09-17T04:30:07.874Z,1011.61
2022-09-17T04:31:08.791Z,1011.68
2022-09-17T04:32:09.637Z,1011.71
2022-09-17T04:33:10.519Z,1011.70
2022-09-17T04:34:11.406Z,1011.65
2022-09-17T04:35:12.293Z,1011.62
2022-09-17T04:36:13.192Z,1011.62
2022-09-17T04:37:14.095Z,1011.59
2022-09-17T04:38:15.112Z,1011.61
2022-09-17T04:39:15.920Z,1011.61
2022-09-17T04:40:16.839Z,1011.61
2022-09-17T04:41:17.703Z,1011.57
2022-09-17T04:42:18.582Z,1011.58
2022-09-17T04:43:19.484Z,1011.65
2022-09-17T04:44:20.377Z,1011.64
2022-09-17T04:45:21.263Z,1011.75
2022-09-17T04:46:22.233Z,1011.86
2022-09-17T04:47:23.055Z,1011.91
2022-09-17T04:48:23.938Z,1011.89
2022-09-17T04:49:24.833Z,1011.97
2022-09-17T04:50:25.714Z,1012.04
2022-09-17T04:51:26.596Z,1012.06
2022-09-17T04:52:30.852Z,1012.14
2022-09-17T04:53:28.572Z,1012.15
2022-09-17T04:54:29.387Z,1012.12
2022-09-17T04:55:30.270Z,1012.11
2022-09-17T04:56:31.163Z,1012.11
2022-09-17T04:57:32.065Z,1012.08
2022-09-17T04:58:32.970Z,1012.10
2022-09-17T04:59:33.842Z,1012.05
2022-09-17T05:00:34.709Z,1012.01
2022-09-17T05:01:35.587Z,1012.03
2022-09-17T05:02:36.426Z,1012.06
2022-09-17T05:03:37.252Z,1012.01
2022-09-17T05:04:38.097Z,1012.10
2022-09-17T05:05:38.918Z,1012.22
2022-09-17T05:06:39.751Z,1012.22
2022-09-17T05:07:40.577Z,1012.23
2022-09-17T05:08:41.587Z,1012.22
2022-09-17T05:09:42.369Z,1012.29
2022-09-17T05:10:43.188Z,1012.32
2022-09-17T05:11:44.016Z,1012.37
2022-09-17T05:12:44.850Z,1012.39
2022-09-17T05:13:45.677Z,1012.42
2022-09-17T05:14:46.516Z,1012.47
2022-09-17T05:15:47.462Z,1012.51
2022-09-17T05:16:48.297Z,1012.57
2022-09-17T05:17:49.178Z,1012.66
2022-09-17T05:18:50.062Z,1012.68
2022-09-17T05:19:50.909Z,1012.66
2022-09-17T05:20:51.794Z,1012.73
2022-09-17T05:21:52.675Z,1012.76
2022-09-17T05:22:53.553Z,1012.77
2022-09-17T05:23:54.549Z,1012.78
2022-09-17T05:24:55.313Z,1012.77
2022-09-17T05:25:56.142Z,1012.76
2022-09-17T05:26:56.973Z,1012.76
2022-09-17T05:27:57.825Z,1012.77
2022-09-17T05:28:58.727Z,1012.78
2022-09-17T05:29:59.603Z,1012.82
2022-09-17T05:31:00.496Z,1012.83
2022-09-17T05:32:01.363Z,1012.85
2022-09-17T05:33:02.201Z,1012.90
2022-09-17T05:34:03.033Z,1012.89
2022-09-17T05:35:05.814Z,1012.94
2022-09-17T05:36:04.808Z,1012.95
2022-09-17T05:37:05.639Z,1012.95
2022-09-17T05:38:06.470Z,1012.95
2022-09-17T05:39:07.414Z,1012.99
2022-09-17T05:40:08.246Z,1013.00
2022-09-17T05:41:09.018Z,1013.01
2022-09-17T05:42:09.845Z,1013.02
2022-09-17T05:43:10.679Z,1013.03
2022-09-17T05:44:15.998Z,1013.03
2022-09-17T05:45:13.242Z,1013.05
2022-09-17T05:46:13.158Z,1013.09
2022-09-17T05:47:13.965Z,1013.12
2022-09-17T05:48:14.794Z,1013.18
2022-09-17T05:49:15.636Z,1013.19
2022-09-17T05:50:16.469Z,1013.20
2022-09-17T05:51:17.297Z,1013.11
2022-09-17T05:52:18.122Z,1013.05
2022-09-17T05:53:19.024Z,1013.04
2022-09-17T05:54:20.012Z,1013.10
2022-09-17T05:55:20.790Z,1013.17
2022-09-17T05:56:21.618Z,1013.19
2022-09-17T05:57:22.462Z,1013.16
2022-09-17T05:58:23.289Z,1013.18
2022-09-17T05:59:24.128Z,1013.22
2022-09-17T06:00:24.959Z,1013.21
2022-09-17T06:01:25.824Z,1013.16
2022-09-17T06:02:26.605Z,1013.13
2022-09-17T06:03:27.435Z,1013.19
2022-09-17T06:04:32.671Z,1013.23
2022-09-17T06:05:29.992Z,1013.24
2022-09-17T06:06:29.820Z,1013.27
2022-09-17T06:07:30.650Z,1013.26
2022-09-17T06:08:31.479Z,1013.23
2022-09-17T06:09:32.432Z,1013.23
2022-09-17T06:10:33.194Z,1013.20
2022-09-17T06:11:34.006Z,1013.18
2022-09-17T06:12:34.833Z,1013.16
2022-09-17T06:13:35.665Z,1013.16
2022-09-17T06:14:36.505Z,1013.14
2022-09-17T06:15:37.331Z,1013.13
2022-09-17T06:16:38.226Z,1013.09
2022-09-17T06:17:39.023Z,1013.09
2022-09-17T06:18:39.852Z,1013.10
2022-09-17T06:19:40.692Z,1013.11
2022-09-17T06:20:41.520Z,1013.14
2022-09-17T06:21:42.350Z,1013.13
2022-09-17T06:22:43.179Z,1013.12
2022-09-17T06:23:44.011Z,1013.13
2022-09-17T06:24:44.967Z,1013.13
2022-09-17T06:25:45.729Z,1013.20
2022-09-17T06:26:46.556Z,1013.28
2022-09-17T06:27:47.376Z,1013.34
2022-09-17T06:28:48.203Z,1013.35
2022-09-17T06:29:49.048Z,1013.38
2022-09-17T06:30:49.872Z,1013.34
2022-09-17T06:31:50.778Z,1013.35
2022-09-17T06:32:51.560Z,1013.35
2022-09-17T06:33:52.745Z,1013.37
2022-09-17T06:34:53.079Z,1013.36
2022-09-17T06:35:53.901Z,1013.31
2022-09-17T06:36:54.736Z,1013.25
2022-09-17T06:37:55.566Z,1013.24
2022-09-17T06:38:56.389Z,1013.27
2022-09-17T06:39:57.433Z,1013.27
2022-09-17T06:40:57.727Z,1013.26
2022-09-17T06:41:58.550Z,1013.27
2022-09-17T06:42:59.377Z,1013.30
2022-09-17T06:44:00.373Z,1013.30
2022-09-17T06:45:04.288Z,1013.29
2022-09-17T06:46:02.424Z,1013.32
2022-09-17T06:47:02.254Z,1013.34
2022-09-17T06:48:03.085Z,1013.38
2022-09-17T06:49:03.911Z,1013.35
2022-09-17T06:50:04.751Z,1013.35
2022-09-17T06:51:05.581Z,1013.33
2022-09-17T06:52:06.432Z,1013.31
2022-09-17T06:53:07.258Z,1013.35
2022-09-17T06:54:08.084Z,1013.39
2022-09-17T06:55:09.038Z,1013.42
2022-09-17T06:56:09.790Z,1013.43
2022-09-17T06:57:10.617Z,1013.41
2022-09-17T06:58:11.445Z,1013.40
2022-09-17T06:59:12.276Z,1013.44
2022-09-17T07:00:13.112Z,1013.45
2022-09-17T07:01:14.034Z,1013.51
2022-09-17T07:02:14.881Z,1013.50
2022-09-17T07:03:18.944Z,1013.52
2022-09-17T07:04:17.430Z,1013.51
2022-09-17T07:05:17.265Z,1013.53
2022-09-17T07:06:18.094Z,1013.54
2022-09-17T07:07:18.922Z,1013.55
2022-09-17T07:08:19.752Z,1013.51
2022-09-17T07:09:20.590Z,1013.52
2022-09-17T07:10:21.537Z,1013.54
2022-09-17T07:11:22.291Z,1013.60
2022-09-17T07:12:23.117Z,1013.65
2022-09-17T07:13:23.954Z,1013.61
2022-09-17T07:14:24.789Z,1013.54
2022-09-17T07:15:25.611Z,1013.50
2022-09-17T07:16:26.489Z,1013.48
2022-09-17T07:17:27.300Z,1013.42
2022-09-17T07:18:28.129Z,1013.41
2022-09-17T07:19:28.975Z,1013.46
2022-09-17T07:20:29.804Z,1013.56
2022-09-17T07:21:30.624Z,1013.59
2022-09-17T07:22:31.451Z,1013.59
2022-09-17T07:23:32.286Z,1013.62
2022-09-17T07:24:33.220Z,1013.64
2022-09-17T07:25:34.099Z,1013.63
2022-09-17T07:26:34.846Z,1013.67
2022-09-17T07:27:35.666Z,1013.70
2022-09-17T07:28:36.504Z,1013.67
2022-09-17T07:29:37.349Z,1013.66
2022-09-17T07:30:38.177Z,1013.66
2022-09-17T07:31:39.058Z,1013.70
2022-09-17T07:32:39.853Z,1013.75
2022-09-17T07:33:40.678Z,1013.77
2022-09-17T07:34:41.510Z,1013.74
2022-09-17T07:35:42.331Z,1013.73
2022-09-17T07:36:43.160Z,1013.73
2022-09-17T07:37:43.987Z,1013.76
2022-09-17T07:38:44.811Z,1013.82
2022-09-17T07:39:45.655Z,1013.80
2022-09-17T07:40:46.603Z,1013.78
2022-09-17T07:41:47.353Z,1013.78
2022-09-17T07:42:48.183Z,1013.74
2022-09-17T07:43:49.012Z,1013.74
2022-09-17T07:44:49.854Z,1013.80
2022-09-17T07:45:50.684Z,1013.79
2022-09-17T07:46:51.553Z,1013.74
2022-09-17T07:47:52.342Z,1013.77
2022-09-17T07:48:53.171Z,1013.81
2022-09-17T07:49:54.025Z,1013.81
2022-09-17T07:50:54.856Z,1013.81
2022-09-17T07:51:55.680Z,1013.75
2022-09-17T07:52:56.509Z,1013.74
2022-09-17T07:53:57.328Z,1013.74
2022-09-17T07:54:58.191Z,1013.75
2022-09-17T07:55:59.141Z,1013.79
2022-09-17T07:56:59.890Z,1013.80
2022-09-17T07:58:00.709Z,1013.79
2022-09-17T07:59:01.626Z,1013.81
2022-09-17T08:00:02.441Z,1013.82
2022-09-17T08:01:03.269Z,1013.86
2022-09-17T08:02:04.263Z,1013.89
2022-09-17T08:03:04.685Z,1013.91
2022-09-17T08:04:05.476Z,1013.95
2022-09-17T08:05:06.313Z,1013.98
2022-09-17T08:06:07.149Z,1014.00
2022-09-17T08:07:07.973Z,1014.03
2022-09-17T08:08:08.804Z,1014.04
2022-09-17T08:09:09.633Z,1014.03
2022-09-17T08:10:10.471Z,1014.03
2022-09-17T08:11:11.435Z,1014.04
2022-09-17T08:12:12.179Z,1014.02
2022-09-17T08:13:13.008Z,1014.04
2022-09-17T08:14:13.839Z,1014.04
2022-09-17T08:15:14.684Z,1014.02
2022-09-17T08:16:15.587Z,1014.00
2022-09-17T08:17:16.373Z,1014.02
2022-09-17T08:18:17.204Z,1014.07
2022-09-17T08:19:18.029Z,1014.14
2022-09-17T08:20:18.858Z,1014.19
2022-09-17T08:21:19.687Z,1014.23
2022-09-17T08:22:20.506Z,1014.25
2022-09-17T08:23:21.338Z,1014.27
2022-09-17T08:24:22.160Z,1014.27
2022-09-17T08:25:22.994Z,1014.29
2022-09-17T08:26:23.945Z,1014.34
2022-09-17T08:27:24.694Z,1014.34
2022-09-17T08:28:25.512Z,1014.35
2022-09-17T08:29:26.339Z,1014.36
2022-09-17T08:30:27.167Z,1014.39
2022-09-17T08:31:28.030Z,1014.44
2022-09-17T08:32:28.829Z,1014.49
2022-09-17T08:33:29.661Z,1014.54
2022-09-17T08:34:30.490Z,1014.55
2022-09-17T08:35:31.335Z,1014.55
2022-09-17T08:36:32.214Z,1014.48
2022-09-17T08:37:33.037Z,1014.48
2022-09-17T08:38:37.930Z,1014.52
2022-09-17T08:39:34.565Z,1014.59
2022-09-17T08:40:35.471Z,1014.68
2022-09-17T08:41:36.400Z,1014.70
2022-09-17T08:42:37.145Z,1014.69
2022-09-17T08:43:37.973Z,1014.69
2022-09-17T08:44:38.802Z,1014.70
2022-09-17T08:45:39.645Z,1014.70
2022-09-17T08:46:40.665Z,1014.72
2022-09-17T08:47:41.014Z,1014.68
2022-09-17T08:48:41.844Z,1014.64
2022-09-17T08:49:42.674Z,1014.61
2022-09-17T08:50:43.506Z,1014.60
2022-09-17T08:51:44.331Z,1014.61
2022-09-17T08:52:45.153Z,1014.62
2022-09-17T08:53:46.003Z,1014.65
2022-09-17T08:54:46.811Z,1014.68
2022-09-17T08:55:47.652Z,1014.67
2022-09-17T08:56:48.588Z,1014.66
2022-09-17T08:57:49.347Z,1014.67
2022-09-17T08:58:50.176Z,1014.67
2022-09-17T08:59:51.006Z,1014.69
2022-09-17T09:00:51.844Z,1014.72
2022-09-17T09:01:52.774Z,1014.74
2022-09-17T09:02:53.711Z,1014.78
2022-09-17T09:03:54.539Z,1014.78
2022-09-17T09:04:55.361Z,1014.77
2022-09-17T09:05:56.221Z,1014.78
2022-09-17T09:06:57.039Z,1014.78
2022-09-17T09:07:57.866Z,1014.79
2022-09-17T09:08:58.689Z,1014.77
2022-09-17T09:09:59.517Z,1014.77
2022-09-17T09:11:00.349Z,1014.72
2022-09-17T09:12:01.349Z,1014.72
2022-09-17T09:13:02.096Z,1014.74
2022-09-17T09:14:02.924Z,1014.75
2022-09-17T09:15:03.754Z,1014.75
2022-09-17T09:16:04.680Z,1014.79
2022-09-17T09:17:05.454Z,1014.80
2022-09-17T09:18:06.281Z,1014.82
2022-09-17T09:19:11.423Z,1014.84
2022-09-17T09:20:08.845Z,1014.88
2022-09-17T09:21:08.677Z,1014.92
2022-09-17T09:22:09.506Z,1014.95
2022-09-17T09:23:10.336Z,1014.96
2022-09-17T09:24:11.163Z,1014.93
2022-09-17T09:25:11.982Z,1014.92
2022-09-17T09:26:12.821Z,1014.93
2022-09-17T09:27:13.773Z,1014.93
2022-09-17T09:28:14.521Z,1014.93
2022-09-17T09:29:15.354Z,1014.91
2022-09-17T09:30:16.186Z,1014.89
2022-09-17T09:31:17.113Z,1014.80
2022-09-17T09:32:17.907Z,1014.80
2022-09-17T09:33:18.739Z,1014.85
2022-09-17T09:34:19.576Z,1014.92
2022-09-17T09:35:20.404Z,1014.92
2022-09-17T09:36:21.241Z,1014.87
2022-09-17T09:37:22.068Z,1014.88
2022-09-17T09:38:22.891Z,1014.91
2022-09-17T09:39:23.724Z,1014.87
2022-09-17T09:40:24.619Z,1014.83
2022-09-17T09:41:25.449Z,1014.81
2022-09-17T09:42:26.396Z,1014.80
2022-09-17T09:43:36.598Z,1014.88
2022-09-17T09:44:28.857Z,1014.88
2022-09-17T09:45:28.691Z,1014.84
2022-09-17T09:46:29.599Z,1014.81
2022-09-17T09:47:30.410Z,1014.83
2022-09-17T09:48:31.237Z,1014.82
2022-09-17T09:49:32.067Z,1014.85
2022-09-17T09:50:54.642Z,1014.89
2022-09-17T09:51:34.622Z,1014.88
2022-09-17T09:52:34.449Z,1014.87
2022-09-17T09:53:35.286Z,1014.82
2022-09-17T09:54:36.114Z,1014.79
2022-09-17T09:55:36.941Z,1014.76
2022-09-17T09:56:37.780Z,1014.77
2022-09-17T09:57:38.727Z,1014.81
2022-09-17T09:58:39.476Z,1014.83
2022-09-17T09:59:40.304Z,1014.83
2022-09-17T10:00:41.134Z,1014.84
2022-09-17T10:01:42.137Z,1014.87
2022-09-17T10:02:42.619Z,1014.88
2022-09-17T10:03:43.073Z,1014.89
2022-09-17T10:04:43.908Z,1014.88
2022-09-17T10:05:44.732Z,1014.85
2022-09-17T10:06:45.570Z,1014.80
2022-09-17T10:07:46.406Z,1014.76
2022-09-17T10:08:47.233Z,1014.78
2022-09-17T10:09:48.061Z,1014.77
2022-09-17T10:10:48.891Z,1014.77
2022-09-17T10:11:49.729Z,1014.76
2022-09-17T10:12:50.671Z,1014.72
2022-09-17T10:13:51.419Z,1014.73
2022-09-17T10:14:52.247Z,1014.73
2022-09-17T10:15:53.157Z,1014.72
2022-09-17T10:16:53.935Z,1014.74
2022-09-17T10:17:54.756Z,1014.78
2022-09-17T10:18:55.586Z,1014.77
2022-09-17T10:19:56.405Z,1014.74
2022-09-17T10:20:57.268Z,1014.72
2022-09-17T10:21:58.084Z,1014.70
2022-09-17T10:22:58.920Z,1014.68
2022-09-17T10:23:59.745Z,1014.72
2022-09-17T10:25:00.570Z,1014.76
2022-09-17T10:26:01.416Z,1014.74
2022-09-17T10:27:02.235Z,1014.69
2022-09-17T10:28:03.182Z,1014.71
2022-09-17T10:29:03.940Z,1014.72
2022-09-17T10:30:04.779Z,1014.71
2022-09-17T10:31:08.875Z,1014.71
2022-09-17T10:32:06.408Z,1014.68
2022-09-17T10:33:07.239Z,1014.67
2022-09-17T10:34:08.076Z,1014.64
2022-09-17T10:35:08.900Z,1014.60
2022-09-17T10:36:09.723Z,1014.62
2022-09-17T10:37:10.558Z,1014.60
2022-09-17T10:38:11.385Z,1014.54
2022-09-17T10:39:12.210Z,1014.52
2022-09-17T10:40:13.114Z,1014.51
2022-09-17T10:41:13.917Z,1014.53
2022-09-17T10:42:14.734Z,1014.57
2022-09-17T10:43:15.680Z,1014.55
2022-09-17T10:44:16.425Z,1014.54
2022-09-17T10:45:17.252Z,1014.54
2022-09-17T10:46:18.121Z,1014.56
2022-09-17T10:47:18.912Z,1014.54
2022-09-17T10:48:19.757Z,1014.51
2022-09-17T10:49:20.574Z,1014.53
2022-09-17T10:50:21.403Z,1014.54
2022-09-17T10:51:22.248Z,1014.54
2022-09-17T10:52:23.069Z,1014.53
2022-09-17T10:53:23.914Z,1014.51
2022-09-17T10:54:24.730Z,1014.45
2022-09-17T10:55:25.560Z,1014.49
2022-09-17T10:56:26.396Z,1014.55
2022-09-17T10:57:27.226Z,1014.58
2022-09-17T10:58:28.170Z,1014.51
2022-09-17T10:59:28.929Z,1014.47
2022-09-17T11:00:29.760Z,1014.46
2022-09-17T11:01:30.675Z,1014.44
2022-09-17T11:02:31.651Z,1014.45
2022-09-17T11:03:32.015Z,1014.45
2022-09-17T11:04:32.856Z,1014.44
2022-09-17T11:05:33.675Z,1014.39
2022-09-17T11:06:34.510Z,1014.39
2022-09-17T11:07:35.337Z,1014.40
2022-09-17T11:08:36.166Z,1014.39
2022-09-17T11:09:36.984Z,1014.41
2022-09-17T11:10:37.831Z,1014.39
2022-09-17T11:11:38.672Z,1014.36
2022-09-17T11:12:39.495Z,1014.40
2022-09-17T11:13:40.429Z,1014.37
2022-09-17T11:14:41.176Z,1014.35
2022-09-17T11:15:41.992Z,1014.40
2022-09-17T11:16:42.861Z,1014.41
2022-09-17T11:17:43.660Z,1014.49
2022-09-17T11:18:44.483Z,1014.48
2022-09-17T11:19:45.302Z,1014.47
2022-09-17T11:20:46.151Z,1014.41
2022-09-17T11:21:46.991Z,1014.37
2022-09-17T11:22:47.820Z,1014.35
2022-09-17T11:23:48.686Z,1014.37
2022-09-17T11:24:49.481Z,1014.36
2022-09-17T11:25:50.316Z,1014.37
2022-09-17T11:26:51.142Z,1014.36
2022-09-17T11:27:51.964Z,1014.34
2022-09-17T11:28:52.911Z,1014.28
2022-09-17T11:29:53.664Z,1014.28
2022-09-17T11:30:54.567Z,1014.35
2022-09-17T11:31:55.493Z,1014.30
2022-09-17T11:32:56.314Z,1014.26
2022-09-17T11:33:57.155Z,1014.23
2022-09-17T11:34:57.983Z,1014.21
2022-09-17T11:35:58.813Z,1014.27
2022-09-17T11:36:59.654Z,1014.27
2022-09-17T11:38:00.470Z,1014.27
2022-09-17T11:39:01.301Z,1014.29
2022-09-17T11:40:02.233Z,1014.21
2022-09-17T11:41:03.018Z,1014.14
2022-09-17T11:42:03.860Z,1014.12
2022-09-17T11:43:04.680Z,1014.16
2022-09-17T11:44:05.638Z,1014.19
2022-09-17T11:45:06.391Z,1014.15
2022-09-17T11:46:07.231Z,1014.20
2022-09-17T11:47:08.053Z,1014.19
2022-09-17T11:48:08.888Z,1014.22
2022-09-17T11:49:09.702Z,1014.23
2022-09-17T11:50:10.533Z,1014.15
2022-09-17T11:51:11.363Z,1014.22
2022-09-17T11:52:12.207Z,1014.22
2022-09-17T11:53:13.035Z,1014.18
2022-09-17T11:54:13.871Z,1014.12
2022-09-17T11:55:14.702Z,1014.09
2022-09-17T11:56:16.735Z,1014.14
2022-09-17T11:57:16.132Z,1014.12
2022-09-17T11:58:16.961Z,1014.07
2022-09-17T11:59:17.907Z,1014.01
2022-09-17T12:00:18.664Z,1014.04
2022-09-17T12:01:19.489Z,1014.00
2022-09-17T12:02:20.419Z,1013.93
2022-09-17T12:03:21.357Z,1013.92
2022-09-17T12:04:22.183Z,1013.94
2022-09-17T12:05:22.999Z,1013.93
2022-09-17T12:06:23.819Z,1013.94
2022-09-17T12:07:24.678Z,1013.95
2022-09-17T12:08:25.488Z,1013.92
2022-09-17T12:09:26.318Z,1013.89
2022-09-17T12:10:27.137Z,1013.88
2022-09-17T12:11:27.975Z,1013.91
2022-09-17T12:12:49.248Z,1013.90
2022-09-17T12:13:30.520Z,1013.88
2022-09-17T12:14:30.456Z,1013.90
2022-09-17T12:15:31.207Z,1013.92